TAP25M LPPT-LPPR
Flight info
| Callsign | TAP25M |
|---|---|
| Flight time | 0h 35m |
| Altitude | 22000 |
| Route | IXIDA DCT ABLEG |
| Aircraft | A320/M-SDE3FGHIRWY/LB1 |
Departure
| Time | 2026-05-07 11:11 |
|---|---|
| Airport | Lisbon Humberto Delgado Airport (LPPT) |
Arrival
| Time | 2026-05-07 11:46 |
|---|---|
| Airport | Francisco de Sá Carneiro Airport (LPPR) |
| Time | Latitude | Longitude | Altitude | Speed | Heading |
|---|---|---|---|---|---|
| 2026-05-07 10:43 | 38.77293 | -9.13180 | 354 ft | 0 kts | 78° |
| 2026-05-07 11:02 | 38.77291 | -9.13190 | 355 ft | 2 kts | 77° |
| 2026-05-07 11:02 | 38.77288 | -9.13211 | 353 ft | 2 kts | 76° |
| 2026-05-07 11:02 | 38.77284 | -9.13231 | 349 ft | 2 kts | 65° |
| 2026-05-07 11:03 | 38.77273 | -9.13245 | 353 ft | 2 kts | 347° |
| 2026-05-07 11:03 | 38.77269 | -9.13244 | 352 ft | 0 kts | 347° |
| 2026-05-07 11:06 | 38.77275 | -9.13245 | 354 ft | 5 kts | 347° |
| 2026-05-07 11:06 | 38.77326 | -9.13294 | 352 ft | 12 kts | 286° |
| 2026-05-07 11:07 | 38.77312 | -9.13404 | 347 ft | 13 kts | 258° |
| 2026-05-07 11:07 | 38.77292 | -9.13527 | 355 ft | 15 kts | 258° |
| 2026-05-07 11:07 | 38.77269 | -9.13663 | 347 ft | 16 kts | 257° |
| 2026-05-07 11:07 | 38.77244 | -9.13810 | 352 ft | 17 kts | 255° |
| 2026-05-07 11:08 | 38.77149 | -9.13890 | 348 ft | 17 kts | 202° |
| 2026-05-07 11:08 | 38.77032 | -9.13953 | 349 ft | 19 kts | 202° |
| 2026-05-07 11:08 | 38.76919 | -9.14011 | 349 ft | 20 kts | 201° |
| 2026-05-07 11:08 | 38.76784 | -9.14082 | 352 ft | 22 kts | 202° |
| 2026-05-07 11:09 | 38.76643 | -9.14159 | 353 ft | 21 kts | 203° |
| 2026-05-07 11:09 | 38.76606 | -9.14272 | 349 ft | 10 kts | 291° |
| 2026-05-07 11:09 | 38.76607 | -9.14277 | 352 ft | 0 kts | 289° |
| 2026-05-07 11:09 | 38.76610 | -9.14288 | 349 ft | 5 kts | 291° |
| 2026-05-07 11:10 | 38.76654 | -9.14361 | 337 ft | 15 kts | 335° |
| 2026-05-07 11:10 | 38.76710 | -9.14354 | 337 ft | 0 kts | 19° |
| 2026-05-07 11:10 | 38.76788 | -9.14314 | 338 ft | 45 kts | 22° |
| 2026-05-07 11:10 | 38.77356 | -9.14011 | 353 ft | 129 kts | 22° |
| 2026-05-07 11:11 | 38.78381 | -9.13485 | 561 ft | 174 kts | 19° |
| 2026-05-07 11:11 | 38.79485 | -9.12873 | 1417 ft | 172 kts | 21° |
| 2026-05-07 11:11 | 38.80602 | -9.12253 | 2142 ft | 180 kts | 20° |
| 2026-05-07 11:11 | 38.81801 | -9.11540 | 2456 ft | 202 kts | 28° |
| 2026-05-07 11:12 | 38.83067 | -9.10563 | 2805 ft | 222 kts | 29° |
| 2026-05-07 11:12 | 38.84470 | -9.09481 | 3214 ft | 247 kts | 30° |
| 2026-05-07 11:12 | 38.86026 | -9.08407 | 3858 ft | 261 kts | 18° |
| 2026-05-07 11:12 | 38.87840 | -9.08047 | 4627 ft | 268 kts | 3° |
| 2026-05-07 11:13 | 38.89725 | -9.07905 | 5474 ft | 275 kts | 3° |
| 2026-05-07 11:13 | 38.91654 | -9.07770 | 6302 ft | 281 kts | 3° |
| 2026-05-07 11:13 | 38.93602 | -9.07635 | 7075 ft | 286 kts | 3° |
| 2026-05-07 11:13 | 38.95604 | -9.07495 | 7903 ft | 289 kts | 3° |
| 2026-05-07 11:14 | 38.97628 | -9.07354 | 8747 ft | 293 kts | 3° |
| 2026-05-07 11:14 | 38.99673 | -9.07211 | 9592 ft | 296 kts | 2° |
| 2026-05-07 11:14 | 39.01750 | -9.07061 | 10282 ft | 306 kts | 2° |
| 2026-05-07 11:14 | 39.03954 | -9.06904 | 10535 ft | 329 kts | 2° |
| 2026-05-07 11:15 | 39.06136 | -9.06750 | 10929 ft | 343 kts | 2° |
| 2026-05-07 11:15 | 39.08533 | -9.06578 | 11621 ft | 347 kts | 2° |
| 2026-05-07 11:15 | 39.10956 | -9.06400 | 12387 ft | 350 kts | 2° |
| 2026-05-07 11:15 | 39.13398 | -9.06218 | 13151 ft | 353 kts | 2° |
| 2026-05-07 11:16 | 39.15854 | -9.06034 | 13903 ft | 354 kts | 2° |
| 2026-05-07 11:16 | 39.18320 | -9.05854 | 14575 ft | 356 kts | 1° |
| 2026-05-07 11:16 | 39.20803 | -9.05676 | 15253 ft | 358 kts | 1° |
| 2026-05-07 11:16 | 39.23297 | -9.05497 | 15926 ft | 361 kts | 1° |
| 2026-05-07 11:17 | 39.25813 | -9.05313 | 16583 ft | 363 kts | 1° |
| 2026-05-07 11:17 | 39.28343 | -9.05127 | 17234 ft | 366 kts | 1° |
| 2026-05-07 11:17 | 39.30896 | -9.04937 | 17873 ft | 368 kts | 1° |
| 2026-05-07 11:17 | 39.33462 | -9.04746 | 18465 ft | 371 kts | 1° |
| 2026-05-07 11:18 | 39.36044 | -9.04555 | 19014 ft | 373 kts | 1° |
| 2026-05-07 11:18 | 39.38640 | -9.04363 | 19579 ft | 375 kts | 1° |
| 2026-05-07 11:18 | 39.41249 | -9.04169 | 20139 ft | 376 kts | 0° |
| 2026-05-07 11:18 | 39.43870 | -9.03975 | 20685 ft | 378 kts | 0° |
| 2026-05-07 11:19 | 39.46504 | -9.03782 | 21243 ft | 380 kts | 0° |
| 2026-05-07 11:19 | 39.49147 | -9.03588 | 21759 ft | 382 kts | 0° |
| 2026-05-07 11:19 | 39.51763 | -9.03397 | 21909 ft | 381 kts | 360° |
| 2026-05-07 11:19 | 39.54371 | -9.03201 | 21943 ft | 372 kts | 360° |
| 2026-05-07 11:20 | 39.56944 | -9.03008 | 21944 ft | 370 kts | 360° |
| 2026-05-07 11:20 | 39.59512 | -9.02819 | 21945 ft | 369 kts | 360° |
| 2026-05-07 11:20 | 39.62075 | -9.02632 | 21946 ft | 369 kts | 360° |
| 2026-05-07 11:20 | 39.64638 | -9.02446 | 21946 ft | 369 kts | 360° |
| 2026-05-07 11:21 | 39.67199 | -9.02260 | 21945 ft | 369 kts | 360° |
| 2026-05-07 11:21 | 39.69763 | -9.02074 | 21951 ft | 369 kts | 0° |
| 2026-05-07 11:21 | 39.72324 | -9.01888 | 21951 ft | 369 kts | 0° |
| 2026-05-07 11:21 | 39.74888 | -9.01701 | 21951 ft | 369 kts | 0° |
| 2026-05-07 11:22 | 39.77449 | -9.01513 | 21951 ft | 369 kts | 0° |
| 2026-05-07 11:22 | 39.80010 | -9.01322 | 21951 ft | 369 kts | 0° |
| 2026-05-07 11:22 | 39.82572 | -9.01128 | 21944 ft | 369 kts | 0° |
| 2026-05-07 11:22 | 39.85133 | -9.00934 | 21943 ft | 369 kts | 0° |
| 2026-05-07 11:23 | 39.87697 | -9.00738 | 21948 ft | 369 kts | 0° |
| 2026-05-07 11:23 | 39.90256 | -9.00544 | 21941 ft | 369 kts | 0° |
| 2026-05-07 11:23 | 39.92817 | -9.00354 | 21950 ft | 369 kts | 0° |
| 2026-05-07 11:23 | 39.95379 | -9.00169 | 21949 ft | 369 kts | 0° |
| 2026-05-07 11:24 | 39.97938 | -8.99983 | 21941 ft | 368 kts | 0° |
| 2026-05-07 11:24 | 40.00498 | -8.99795 | 21940 ft | 368 kts | 0° |
| 2026-05-07 11:24 | 40.03055 | -8.99605 | 21944 ft | 368 kts | 0° |
| 2026-05-07 11:24 | 40.05615 | -8.99413 | 21941 ft | 368 kts | 0° |
| 2026-05-07 11:25 | 40.08172 | -8.99220 | 21932 ft | 368 kts | 0° |
| 2026-05-07 11:25 | 40.10732 | -8.99024 | 21934 ft | 368 kts | 0° |
| 2026-05-07 11:25 | 40.13287 | -8.98828 | 21945 ft | 368 kts | 0° |
| 2026-05-07 11:25 | 40.15846 | -8.98636 | 21938 ft | 368 kts | 0° |
| 2026-05-07 11:26 | 40.18405 | -8.98447 | 21936 ft | 368 kts | 0° |
| 2026-05-07 11:26 | 40.20962 | -8.98259 | 21930 ft | 368 kts | 0° |
| 2026-05-07 11:26 | 40.23521 | -8.98069 | 21928 ft | 368 kts | 0° |
| 2026-05-07 11:26 | 40.26078 | -8.97874 | 21930 ft | 368 kts | 0° |
| 2026-05-07 11:27 | 40.28636 | -8.97677 | 21930 ft | 368 kts | 0° |
| 2026-05-07 11:27 | 40.31160 | -8.97483 | 21925 ft | 368 kts | 0° |
| 2026-05-07 11:27 | 40.33716 | -8.97287 | 21928 ft | 368 kts | 0° |
| 2026-05-07 11:27 | 40.36310 | -8.97092 | 21927 ft | 368 kts | 0° |
| 2026-05-07 11:28 | 40.38836 | -8.96906 | 21924 ft | 368 kts | 0° |
| 2026-05-07 11:28 | 40.41395 | -8.96715 | 21922 ft | 368 kts | 0° |
| 2026-05-07 11:28 | 40.43952 | -8.96521 | 21923 ft | 368 kts | 0° |
| 2026-05-07 11:28 | 40.46512 | -8.96325 | 21923 ft | 368 kts | 0° |
| 2026-05-07 11:29 | 40.49070 | -8.96131 | 21922 ft | 368 kts | 0° |
| 2026-05-07 11:29 | 40.51629 | -8.95937 | 21926 ft | 368 kts | 0° |
| 2026-05-07 11:29 | 40.54189 | -8.95741 | 21926 ft | 368 kts | 0° |
| 2026-05-07 11:29 | 40.56732 | -8.95545 | 21769 ft | 363 kts | 0° |
| 2026-05-07 11:30 | 40.59218 | -8.95354 | 21507 ft | 354 kts | 0° |
| 2026-05-07 11:30 | 40.61655 | -8.95168 | 21249 ft | 349 kts | 0° |
| 2026-05-07 11:30 | 40.64068 | -8.94987 | 20991 ft | 347 kts | 0° |
| 2026-05-07 11:30 | 40.66472 | -8.94807 | 20734 ft | 346 kts | 1° |
| 2026-05-07 11:31 | 40.68879 | -8.94626 | 20482 ft | 345 kts | 1° |
| 2026-05-07 11:31 | 40.71275 | -8.94403 | 20231 ft | 345 kts | 2° |
| 2026-05-07 11:31 | 40.73666 | -8.94125 | 19879 ft | 345 kts | 3° |
| 2026-05-07 11:31 | 40.76075 | -8.93819 | 18977 ft | 349 kts | 4° |
| 2026-05-07 11:32 | 40.80176 | -8.93282 | 17387 ft | 351 kts | 4° |
| 2026-05-07 11:32 | 40.82612 | -8.92969 | 16404 ft | 352 kts | 4° |
| 2026-05-07 11:32 | 40.85067 | -8.92659 | 15676 ft | 356 kts | 4° |
| 2026-05-07 11:33 | 40.87488 | -8.92357 | 15251 ft | 353 kts | 4° |
| 2026-05-07 11:33 | 40.89930 | -8.92055 | 14824 ft | 351 kts | 4° |
| 2026-05-07 11:33 | 40.92391 | -8.91750 | 14392 ft | 350 kts | 4° |
| 2026-05-07 11:33 | 40.94774 | -8.91458 | 13970 ft | 348 kts | 5° |
| 2026-05-07 11:34 | 40.97169 | -8.91164 | 13528 ft | 347 kts | 5° |
| 2026-05-07 11:34 | 40.99567 | -8.90868 | 13087 ft | 345 kts | 5° |
| 2026-05-07 11:34 | 41.01948 | -8.90575 | 12656 ft | 342 kts | 5° |
| 2026-05-07 11:34 | 41.04309 | -8.90283 | 12230 ft | 340 kts | 5° |
| 2026-05-07 11:35 | 41.06655 | -8.89994 | 11802 ft | 338 kts | 5° |
| 2026-05-07 11:35 | 41.08989 | -8.89709 | 11369 ft | 336 kts | 5° |
| 2026-05-07 11:35 | 41.11308 | -8.89422 | 10938 ft | 334 kts | 5° |
| 2026-05-07 11:35 | 41.13619 | -8.89135 | 10502 ft | 333 kts | 5° |
| 2026-05-07 11:36 | 41.15922 | -8.88850 | 10087 ft | 332 kts | 5° |
| 2026-05-07 11:36 | 41.18186 | -8.88572 | 9932 ft | 321 kts | 5° |
| 2026-05-07 11:36 | 41.20377 | -8.88302 | 9807 ft | 310 kts | 5° |
| 2026-05-07 11:36 | 41.22486 | -8.88039 | 9359 ft | 301 kts | 6° |
| 2026-05-07 11:37 | 41.24562 | -8.87780 | 8693 ft | 298 kts | 6° |
| 2026-05-07 11:37 | 41.26619 | -8.87524 | 8077 ft | 295 kts | 6° |
| 2026-05-07 11:37 | 41.28642 | -8.87270 | 7496 ft | 290 kts | 6° |
| 2026-05-07 11:37 | 41.30632 | -8.87023 | 7193 ft | 275 kts | 6° |
| 2026-05-07 11:38 | 41.32548 | -8.86783 | 6360 ft | 283 kts | 6° |
| 2026-05-07 11:38 | 41.34515 | -8.86537 | 5712 ft | 285 kts | 6° |
| 2026-05-07 11:38 | 41.36506 | -8.86288 | 5251 ft | 286 kts | 6° |
| 2026-05-07 11:38 | 41.38445 | -8.86049 | 4913 ft | 282 kts | 5° |
| 2026-05-07 11:39 | 41.40398 | -8.85805 | 4474 ft | 282 kts | 5° |
| 2026-05-07 11:39 | 41.42305 | -8.85452 | 4300 ft | 270 kts | 18° |
| 2026-05-07 11:39 | 41.43897 | -8.84318 | 4241 ft | 252 kts | 38° |
| 2026-05-07 11:39 | 41.45268 | -8.82958 | 4179 ft | 240 kts | 38° |
| 2026-05-07 11:40 | 41.46592 | -8.81643 | 4127 ft | 236 kts | 38° |
| 2026-05-07 11:40 | 41.47908 | -8.80334 | 4062 ft | 235 kts | 38° |
| 2026-05-07 11:40 | 41.49036 | -8.78796 | 4002 ft | 232 kts | 66° |
| 2026-05-07 11:40 | 41.49295 | -8.76742 | 3950 ft | 223 kts | 103° |
| 2026-05-07 11:41 | 41.48620 | -8.74969 | 3895 ft | 209 kts | 138° |
| 2026-05-07 11:41 | 41.47405 | -8.74073 | 3863 ft | 197 kts | 168° |
| 2026-05-07 11:41 | 41.46081 | -8.73720 | 3744 ft | 196 kts | 169° |
| 2026-05-07 11:41 | 41.44746 | -8.73372 | 3543 ft | 196 kts | 170° |
| 2026-05-07 11:42 | 41.43406 | -8.73020 | 3321 ft | 196 kts | 169° |
| 2026-05-07 11:42 | 41.42055 | -8.72664 | 3080 ft | 199 kts | 170° |
| 2026-05-07 11:42 | 41.40699 | -8.72306 | 2852 ft | 197 kts | 170° |
| 2026-05-07 11:42 | 41.39374 | -8.71956 | 2615 ft | 192 kts | 171° |
| 2026-05-07 11:43 | 41.38081 | -8.71616 | 2370 ft | 187 kts | 172° |
| 2026-05-07 11:43 | 41.36813 | -8.71282 | 2142 ft | 184 kts | 172° |
| 2026-05-07 11:43 | 41.35569 | -8.70954 | 1919 ft | 178 kts | 172° |
| 2026-05-07 11:43 | 41.34406 | -8.70646 | 1733 ft | 162 kts | 173° |
| 2026-05-07 11:44 | 41.33355 | -8.70369 | 1523 ft | 148 kts | 173° |
| 2026-05-07 11:44 | 41.32370 | -8.70110 | 1345 ft | 142 kts | 173° |
| 2026-05-07 11:44 | 41.31398 | -8.69856 | 1171 ft | 142 kts | 173° |
| 2026-05-07 11:44 | 41.30428 | -8.69601 | 993 ft | 142 kts | 173° |
| 2026-05-07 11:45 | 41.29459 | -8.69347 | 825 ft | 141 kts | 174° |
| 2026-05-07 11:45 | 41.28496 | -8.69094 | 647 ft | 142 kts | 173° |
| 2026-05-07 11:45 | 41.27538 | -8.68842 | 475 ft | 139 kts | 172° |
| 2026-05-07 11:45 | 41.26585 | -8.68587 | 316 ft | 140 kts | 171° |
| 2026-05-07 11:46 | 41.25634 | -8.68334 | 229 ft | 136 kts | 172° |
| 2026-05-07 11:46 | 41.24822 | -8.68132 | 239 ft | 95 kts | 168° |
| 2026-05-07 11:46 | 41.24344 | -8.68006 | 247 ft | 45 kts | 169° |
| 2026-05-07 11:46 | 41.24115 | -8.67947 | 246 ft | 34 kts | 169° |
| 2026-05-07 11:47 | 41.23865 | -8.67878 | 255 ft | 39 kts | 168° |
| 2026-05-07 11:47 | 41.23613 | -8.67807 | 264 ft | 22 kts | 148° |
| 2026-05-07 11:47 | 41.23608 | -8.67641 | 264 ft | 18 kts | 79° |
| 2026-05-07 11:47 | 41.23630 | -8.67478 | 261 ft | 17 kts | 93° |
| 2026-05-07 11:48 | 41.23583 | -8.67352 | 260 ft | 15 kts | 112° |
| 2026-05-07 11:48 | 41.23547 | -8.67238 | 257 ft | 0 kts | 112° |